Dousman, WI (53118)

11:51 AM CDT on September 23, 2014 (GMT -0500)
Genesee Lake Farms | Change Station
CLOSE
Current Station
Personal Weather Station
Location: Oconomowoc, WI
Elevation: 884 ft
Nearby Weather Stations

Elev 884 ft 43.04 °N, 88.49 °W | Updated 23 seconds ago

Clear
Clear
70.1 °F
Feels Like 76 °F
N
3.0
Wind Variable Wind from NNW
Gusts 5.0 mph

Today
High -- | Low -- °F
--% Chance of Precip.
Yesterday
High -- | Low -- °F
Precip. -- in
6:42 AM 6:49 PM
Waning Crescent, 0% visible
Pressure 30.33 in
Visibility 10.0 miles
Clouds Clear
Heat Index 76 °F
Dew Point 55 °F
Humidity 58%
Rainfall 0.01 in
Snow Depth Not available.
UV 5 out of 12
Pollen 4.10 out of 12
Air Quality Not available.
Flu Activity Not available.
METAR KUES 231545Z 21003KT 10SM SKC 18/11 A3033

More Conditions Fewer Conditions

Pressure 30.33 in
Visibility 10.0 miles
Clouds Clear
Heat Index 76 °F
Dew Point 55 °F
Humidity 58%
Rainfall 0.01 in
Snow Depth Not available.
UV 5 out of 12
Pollen 4.10 out of 12
Air Quality Not available.
Flu Activity Not available.
METAR KUES 231545Z 21003KT 10SM SKC 18/11 A3033

More Conditions Fewer Conditions

10-Day Weather Forecast

Almanac

Astronomy

Sep. 23, 2014 Rise Set
Actual Time 6:42 AM CDT 6:49 PM CDT
Civil Twilight 6:14 AM CDT 7:17 PM CDT
Nautical Twilight 5:40 AM CDT 7:50 PM CDT
Astronomical Twilight 5:06 AM CDT 8:24 PM CDT
Moon 6:06 AM CDT 6:27 PM CDT
Length of Visible Light 13h 03m
Length of Day
12h 07m
Tomorrow will be 2m 54s shorter.
Waning Crescent, 0% of the Moon is Illuminated
Today
Waning Crescent
Sep 24
New
Oct 1
First Quarter
Oct 8
Full
Oct 15
Last Quarter

Today's Extremes

State Highs State Lows

Community

WunderPhotos

Upload Photos

1,755,750 photos uploaded!

WunderBlogs® & News

Nearby

Snow Depth

Station Depth Elevation
No new snow has been reported.

Earthquake Activity

City Distance Mag. Time & Date
No recent earthquake activity has been reported nearby.
Minimum magnitude displayed is 2.5.

Coastal Water Temperatures

Place Temperature
No Stations Reporting

Nearby Weather Stations